Chicken, AK (99732)

4:02 PM AKST on March 01, 2015 (GMT -0900)
Northway | Change Station
CLOSE
Current Station
Airport
Location: Northway,
Elevation: 1722 ft
Nearby Weather Stations

Elev 1722 ft 62.96 °N, 141.93 °W | Updated 9 minutes ago

Scattered Clouds
Scattered Clouds
25 °F
Feels Like 25 °F
N
0
Wind Variable Wind from North

Today
High -- | Low -- °F
--% Chance of Precip.
Yesterday
High -- | Low -- °F
Precip. -- in
7:35 AM 5:47 PM
Waxing Gibbous, 88% visible
Pressure 30.66 in
Visibility 10.0 miles
Clouds Few 4000 ft
Scattered Clouds 20000 ft
Dew Point 7 °F
Humidity 46%
Rainfall 0.00 in
Snow Depth Not available.
UV 0 out of 12
Pollen Not available.
Air Quality Not available.
Flu Activity Not available.
METAR PAOR 020053Z 00000KT 10SM FEW040 SCT200 M04/M14 A3054 RMK AO2 SLP381 T10391139

More Conditions Fewer Conditions

Pressure 30.66 in
Visibility 10.0 miles
Clouds Few 4000 ft
Scattered Clouds 20000 ft
Dew Point 7 °F
Humidity 46%
Rainfall 0.00 in
Snow Depth Not available.
UV 0 out of 12
Pollen Not available.
Air Quality Not available.
Flu Activity Not available.
METAR PAOR 020053Z 00000KT 10SM FEW040 SCT200 M04/M14 A3054 RMK AO2 SLP381 T10391139

More Conditions Fewer Conditions

10-Day Weather Forecast

Almanac

Astronomy

Mar. 01, 2015 Rise Set
Actual Time
Civil Twilight
Nautical Twilight
Astronomical Twilight
Moon
Length of Visible Light
Length of Day
Tomorrow will be .
, % of the Moon is Illuminated

Today's Extremes

State Highs State Lows

Community

WunderPhotos

Upload Photos

1,801,669 photos uploaded!

WunderBlogs® & News

Nearby

Air Quality

  Air Quality AQ Index Pollutant
Not available.

Snow Depth

Station Depth Elevation

Earthquake Activity

City Distance Mag. Time & Date
Minimum magnitude displayed is 2.5.

Coastal Water Temperatures

Place Temperature

Nearby Weather Stations